Time;durP1;ratioP1;P1;durP2;ratioP2;P2;SDS_P1;SDS_P2;PMS_P1;PMS_P2;Temp;Humidity;BMP_temperature;BMP_pressure;BME280_temperature;BME280_humidity;BME280_pressure;Samples;Min_cycle;Max_cycle;Signal;HPM_P1;HPM_P2
2022/03/23 07:19:38;;;;;;;;;24.75;22.75;;;;;17.76;45.72;102706.63;5123732;27;47167;-75
2022/03/23 07:22:04;;;;;;;;;28.50;24.50;;;;;17.94;46.21;102705.72;5110080;27;45818;-75
2022/03/23 07:24:29;;;;;;;;;23.00;22.25;;;;;18.14;46.05;102702.81;5115059;27;45517;-75
2022/03/23 07:26:55;;;;;;;;;24.50;22.00;;;;;18.43;45.98;102702.13;5113871;27;45715;-75
2022/03/23 07:29:20;;;;;;;;;24.50;23.50;;;;;18.70;45.60;102706.91;5107142;27;46084;-75
2022/03/23 07:31:46;;;;;;;;;23.75;19.00;;;;;18.96;45.58;102710.78;5110433;27;45474;-75
2022/03/23 07:34:18;;;;;;;;;24.00;21.75;;;;;19.22;45.15;102713.75;5111065;27;45873;-75
2022/03/23 07:36:44;;;;;;;;;25.75;23.00;;;;;19.52;44.53;102727.28;5116770;27;45462;-74
2022/03/23 07:39:09;;;;;;;;;20.25;17.50;;;;;19.77;44.51;102725.81;5113175;27;45532;-75
2022/03/23 07:41:34;;;;;;;;;20.75;18.50;;;;;19.99;44.20;102723.53;5109909;27;45530;-75
2022/03/23 07:43:59;;;;;;;;;20.00;19.00;;;;;20.21;43.96;102730.25;5109425;27;45661;-75
2022/03/23 07:46:25;;;;;;;;;19.00;18.50;;;;;20.39;43.39;102717.41;5104637;27;45483;-75
2022/03/23 07:48:50;;;;;;;;;19.00;16.25;;;;;20.61;43.68;102726.81;5116538;27;46229;-73
2022/03/23 07:51:16;;;;;;;;;18.75;18.50;;;;;20.80;43.06;102737.25;5112440;27;45554;-76
2022/03/23 07:53:41;;;;;;;;;19.50;18.75;;;;;20.97;42.72;102734.41;5108049;27;45677;-76
2022/03/23 07:56:06;;;;;;;;;19.75;17.50;;;;;21.12;43.15;102735.19;5112851;27;46049;-75
2022/03/23 07:58:32;;;;;;;;;20.25;18.50;;;;;21.29;43.10;102736.78;5113017;27;45866;-76
2022/03/23 08:00:57;;;;;;;;;21.50;19.75;;;;;21.44;42.36;102738.41;5111429;27;45480;-74
2022/03/23 08:03:23;;;;;;;;;19.50;19.50;;;;;21.55;42.75;102737.66;5115573;27;45840;-74
2022/03/23 08:05:48;;;;;;;;;16.75;16.75;;;;;21.74;42.29;102744.50;5114212;27;45576;-74
2022/03/23 08:08:14;;;;;;;;;20.75;19.00;;;;;21.87;42.45;102741.81;5111491;27;46292;-74
2022/03/23 08:10:41;;;;;;;;;18.25;17.25;;;;;22.01;41.91;102751.66;5109863;27;45628;-78
2022/03/23 08:13:08;;;;;;;;;15.00;14.50;;;;;22.15;42.21;102747.09;5110103;27;45719;-75
2022/03/23 08:15:38;;;;;;;;;18.75;18.25;;;;;22.27;41.56;102751.59;5112204;27;45581;-75
2022/03/23 08:18:04;;;;;;;;;18.50;17.75;;;;;22.38;41.21;102743.56;5112240;27;45509;-73
2022/03/23 08:20:32;;;;;;;;;15.25;15.25;;;;;22.47;41.50;102746.56;5110743;27;45492;-73
2022/03/23 08:23:02;;;;;;;;;22.25;20.50;;;;;22.58;40.91;102740.41;5110167;27;46873;-71
2022/03/23 08:25:28;;;;;;;;;19.50;17.00;;;;;22.65;40.57;102741.69;5113132;27;45540;-76
2022/03/23 08:27:55;;;;;;;;;17.50;17.50;;;;;22.73;40.18;102751.94;5114811;27;47194;-73
2022/03/23 08:30:20;;;;;;;;;18.25;16.50;;;;;22.79;40.84;102750.59;5115758;27;45965;-74
2022/03/23 08:32:45;;;;;;;;;20.75;20.00;;;;;22.86;40.21;102743.75;5094991;27;45452;-76
2022/03/23 08:35:11;;;;;;;;;16.75;16.25;;;;;22.90;40.64;102751.50;5095250;27;45530;-74
2022/03/23 08:37:38;;;;;;;;;19.25;19.25;;;;;22.96;40.68;102755.63;5091942;27;46110;-73
2022/03/23 08:40:05;;;;;;;;;18.50;16.75;;;;;23.01;39.93;102747.16;5099530;27;45742;-75
2022/03/23 08:42:31;;;;;;;;;19.25;17.50;;;;;23.06;40.53;102746.78;5095528;27;45958;-74
2022/03/23 08:44:56;;;;;;;;;18.25;16.75;;;;;23.07;40.38;102740.38;5097626;27;45583;-73
2022/03/23 08:47:23;;;;;;;;;18.25;18.00;;;;;23.13;40.57;102750.78;5097468;27;48089;-75
2022/03/23 08:49:48;;;;;;;;;18.00;16.25;;;;;23.17;40.46;102757.66;5094356;27;45521;-75
2022/03/23 08:52:14;;;;;;;;;15.50;14.25;;;;;23.19;39.91;102736.75;5096714;27;45492;-74
2022/03/23 08:54:39;;;;;;;;;17.25;16.50;;;;;23.26;39.83;102748.81;5096135;27;45450;-74
2022/03/23 08:57:05;;;;;;;;;17.75;17.75;;;;;23.28;39.75;102746.00;5094544;27;45518;-73
2022/03/23 08:59:30;;;;;;;;;16.00;16.00;;;;;23.27;39.91;102738.88;5096445;27;48041;-76
2022/03/23 09:01:56;;;;;;;;;20.25;15.50;;;;;23.32;40.02;102739.38;5099601;27;45506;-76
2022/03/23 09:04:22;;;;;;;;;16.67;13.67;;;;;23.36;39.89;102742.72;5093822;27;45699;-73
2022/03/23 09:06:47;;;;;;;;;21.50;16.25;;;;;23.37;39.62;102748.03;5093766;27;46924;-76
2022/03/23 09:09:13;;;;;;;;;14.50;14.50;;;;;23.41;40.12;102745.94;5094775;27;45504;-76
2022/03/23 09:11:38;;;;;;;;;15.75;15.50;;;;;23.42;40.22;102745.84;5095157;27;46813;-76
2022/03/23 09:14:04;;;;;;;;;17.50;15.75;;;;;23.45;40.02;102744.72;5098592;27;45549;-77
2022/03/23 09:16:29;;;;;;;;;16.50;15.50;;;;;23.48;39.51;102743.63;5095353;27;45956;-76
2022/03/23 09:18:55;;;;;;;;;19.50;16.75;;;;;23.51;39.92;102740.69;5099708;27;45514;-75
2022/03/23 09:21:21;;;;;;;;;16.25;14.50;;;;;23.52;40.02;102743.28;5096164;27;45484;-75
2022/03/23 09:23:46;;;;;;;;;17.00;17.00;;;;;23.52;39.76;102737.84;5096931;27;46892;-74
2022/03/23 09:26:12;;;;;;;;;15.00;13.50;;;;;23.58;39.79;102738.34;5094454;27;45489;-74
2022/03/23 09:28:38;;;;;;;;;15.00;12.67;;;;;23.59;40.01;102740.06;5097797;27;45597;-73
2022/03/23 09:31:04;;;;;;;;;16.50;15.25;;;;;23.63;40.11;102742.41;5092754;27;45555;-75
2022/03/23 09:33:30;;;;;;;;;17.00;15.25;;;;;23.67;39.85;102743.06;5097949;27;45493;-75
2022/03/23 09:35:56;;;;;;;;;15.00;14.67;;;;;23.68;39.39;102739.34;5099657;27;46347;-75
2022/03/23 09:38:21;;;;;;;;;14.25;14.25;;;;;23.70;40.10;102742.78;5099385;27;45840;-76
2022/03/23 09:40:50;;;;;;;;;15.67;14.33;;;;;23.71;39.84;102743.66;5094938;27;45492;-74
2022/03/23 09:43:19;;;;;;;;;20.00;16.00;;;;;23.72;39.86;102740.84;5091913;27;45916;-73
2022/03/23 09:45:47;;;;;;;;;15.25;13.50;;;;;23.75;39.27;102746.00;5096722;27;45445;-74
2022/03/23 09:48:16;;;;;;;;;16.00;16.00;;;;;23.76;39.45;102745.03;5097872;27;45675;-79
2022/03/23 09:50:45;;;;;;;;;16.75;15.25;;;;;23.72;39.55;102740.84;5095995;27;46791;-76
2022/03/23 09:53:11;;;;;;;;;13.33;13.33;;;;;23.80;39.29;102742.94;5096240;27;45901;-76
2022/03/23 09:55:36;;;;;;;;;18.00;17.67;;;;;23.76;39.95;102739.63;5098361;27;46144;-75
2022/03/23 09:58:04;;;;;;;;;15.33;14.67;;;;;23.73;39.73;102729.00;5102479;27;45954;-75
2022/03/23 10:00:38;;;;;;;;;14.33;14.33;;;;;23.84;39.62;102740.84;5109436;27;45513;-76
2022/03/23 10:03:42;;;;;;;;;12.67;12.67;;;;;23.89;39.69;102739.50;5096026;27;45573;-75
2022/03/23 10:06:38;;;;;;;;;16.00;15.00;;;;;23.91;39.37;102739.38;5098210;27;45457;-75
2022/03/23 10:09:54;;;;;;;;;16.00;14.00;;;;;23.92;39.75;102732.97;5096609;27;45589;-75
2022/03/23 10:12:56;;;;;;;;;17.67;17.00;;;;;23.93;39.42;102735.56;5029758;28;45749;-75
2022/03/23 10:15:42;;;;;;;;;14.33;12.00;;;;;23.98;39.55;102739.75;5030668;28;46929;-75
2022/03/23 10:18:47;;;;;;;;;17.33;13.67;;;;;24.01;39.74;102736.78;5016595;28;52224;-75
2022/03/23 10:21:13;;;;;;;;;14.33;13.67;;;;;24.04;39.50;102728.41;5032013;28;45551;-75
2022/03/23 10:23:39;;;;;;;;;11.67;11.67;;;;;24.05;39.77;102728.28;5035958;28;45545;-75
2022/03/23 10:26:14;;;;;;;;;15.00;13.33;;;;;24.09;39.77;102723.50;5032706;28;45709;-78
2022/03/23 10:28:39;;;;;;;;;16.00;15.67;;;;;24.12;39.65;102717.84;5032092;28;46152;-75
2022/03/23 10:31:20;;;;;;;;;15.00;13.00;;;;;24.18;39.85;102725.47;5038162;28;45575;-79
2022/03/23 10:34:08;;;;;;;;;12.67;12.67;;;;;24.20;39.84;102723.47;5034173;28;46436;-77
2022/03/23 10:36:55;;;;;;;;;16.00;14.33;;;;;24.22;39.98;102717.94;5031527;28;45676;-78
2022/03/23 10:39:27;;;;;;;;;19.67;17.33;;;;;24.26;39.86;102715.81;5033191;28;45863;-78
2022/03/23 10:42:18;;;;;;;;;16.33;14.33;;;;;24.27;39.83;102710.28;5031706;28;45533;-76
2022/03/23 10:44:47;;;;;;;;;15.00;15.00;;;;;24.30;39.75;102709.16;5031912;28;45556;-76
2022/03/23 10:47:33;;;;;;;;;15.67;15.67;;;;;24.33;39.89;102714.34;5089007;27;45674;-77
2022/03/23 10:50:16;;;;;;;;;14.00;14.00;;;;;24.37;39.96;102707.69;5095717;27;46869;-75
2022/03/23 10:53:00;;;;;;;;;11.33;11.33;;;;;24.41;39.70;102700.13;5094739;27;45771;-76
2022/03/23 10:55:30;;;;;;;;;11.00;11.00;;;;;24.44;39.69;102699.88;5100271;27;45783;-78
2022/03/23 10:57:58;;;;;;;;;13.67;12.00;;;;;24.47;40.26;102703.19;5098803;27;46968;-80
2022/03/23 11:00:32;;;;;;;;;15.00;15.00;;;;;24.51;39.80;102694.78;5094334;27;46275;-79
2022/03/23 11:02:59;;;;;;;;;17.33;15.00;;;;;24.51;39.60;102697.50;5094364;27;45737;-78
2022/03/23 11:05:33;;;;;;;;;16.00;13.67;;;;;24.56;39.63;102701.56;5094951;27;45511;-74
2022/03/23 11:08:08;;;;;;;;;14.00;13.00;;;;;24.58;39.56;102690.59;5088098;27;45664;-74
2022/03/23 11:16:10;;;;;;;;;14.00;13.00;;;;;24.57;39.16;102687.00;5082781;27;45623;-74
2022/03/23 11:18:36;;;;;;;;;15.33;14.00;;;;;24.58;39.20;102693.28;5085506;27;45681;-74
2022/03/23 11:21:02;;;;;;;;;14.67;12.67;;;;;24.57;39.13;102684.28;5084075;27;46281;-74
2022/03/23 11:23:36;;;;;;;;;15.67;15.00;;;;;24.58;38.99;102679.72;5084266;27;45784;-74
2022/03/23 11:26:04;;;;;;;;;15.00;15.00;;;;;24.59;38.90;102678.72;5083756;27;45543;-73
2022/03/23 11:28:34;;;;;;;;;21.50;21.50;;;;;24.57;35.38;102678.84;5075005;27;45785;-74
2022/03/23 11:31:03;;;;;;;;;23.25;21.00;;;;;24.55;32.23;102672.69;5094946;27;46255;-74
2022/03/23 11:33:32;;;;;;;;;24.50;22.25;;;;;24.42;32.25;102653.88;5088460;27;45558;-74
2022/03/23 11:35:58;;;;;;;;;22.50;22.50;;;;;24.46;30.46;102652.63;5086627;27;45466;-74
2022/03/23 11:38:26;;;;;;;;;26.50;25.50;;;;;24.42;29.25;102648.44;5086273;27;45593;-74
2022/03/23 11:40:52;;;;;;;;;25.75;25.75;;;;;24.41;28.87;102657.59;5086604;27;46256;-75
2022/03/23 11:43:20;;;;;;;;;24.00;23.25;;;;;24.39;28.49;102645.13;5099128;27;45493;-75
2022/03/23 11:45:47;;;;;;;;;22.75;22.25;;;;;24.34;28.73;102640.94;5105744;27;45397;-75
2022/03/23 11:48:40;;;;;;;;;25.50;24.50;;;;;24.36;28.25;102639.94;5087872;27;45793;-75
2022/03/23 11:51:11;;;;;;;;;26.75;25.25;;;;;24.37;28.20;102645.25;5096592;27;46212;-74
2022/03/23 11:53:52;;;;;;;;;24.50;24.00;;;;;24.38;27.48;102637.97;5092084;27;45564;-73
2022/03/23 11:56:24;;;;;;;;;24.75;23.75;;;;;24.38;27.52;102632.53;5079598;27;45438;-73
2022/03/23 11:58:49;;;;;;;;;22.50;22.25;;;;;24.39;27.03;102628.84;5095843;27;45457;-73
2022/03/23 12:01:15;;;;;;;;;25.50;22.50;;;;;24.38;26.90;102627.97;5087632;27;46795;-73
2022/03/23 12:03:40;;;;;;;;;26.75;22.75;;;;;24.35;26.53;102622.78;5078903;27;46880;-75
2022/03/23 12:06:09;;;;;;;;;20.25;19.75;;;;;24.34;27.38;102613.81;5088164;27;45717;-71
2022/03/23 12:08:51;;;;;;;;;21.00;19.00;;;;;24.32;26.93;102615.78;5089451;27;45574;-72
2022/03/23 12:11:41;;;;;;;;;24.50;22.50;;;;;24.28;26.50;102611.59;5086724;27;45523;-72
2022/03/23 12:14:17;;;;;;;;;19.75;19.75;;;;;24.24;26.28;102604.72;5087058;27;45798;-75
2022/03/23 12:16:45;;;;;;;;;22.75;22.75;;;;;24.26;26.73;102605.44;5085248;27;45765;-77
2022/03/23 12:19:11;;;;;;;;;24.75;21.75;;;;;24.27;26.99;102606.31;5091436;27;45465;-77
2022/03/23 12:21:55;;;;;;;;;21.75;21.50;;;;;24.29;26.98;102596.19;5085583;27;46934;-76
2022/03/23 12:24:41;;;;;;;;;20.50;19.75;;;;;24.28;26.21;102597.19;5089395;27;45526;-78
2022/03/23 12:27:21;;;;;;;;;21.50;21.50;;;;;24.25;26.14;102592.00;5089542;27;45468;-78
2022/03/23 12:29:49;;;;;;;;;22.00;20.50;;;;;24.29;26.33;102593.47;5094486;27;45514;-85
2022/03/23 12:32:15;;;;;;;;;17.25;17.25;;;;;24.30;26.21;102601.50;5091018;27;45910;-80
2022/03/23 12:34:43;;;;;;;;;21.25;19.50;;;;;24.29;25.51;102588.91;5083142;27;45503;-79
2022/03/23 12:37:12;;;;;;;;;19.75;18.75;;;;;24.31;25.96;102578.78;5093608;27;45552;-78
2022/03/23 12:39:46;;;;;;;;;21.50;20.75;;;;;24.32;26.10;102582.38;5086645;27;45724;-78
2022/03/23 12:42:12;;;;;;;;;20.25;19.75;;;;;24.34;25.56;102575.81;5088928;27;46596;-78
2022/03/23 12:44:39;;;;;;;;;19.75;19.75;;;;;24.35;25.42;102573.94;5088102;27;45311;-78
2022/03/23 12:47:07;;;;;;;;;21.75;19.00;;;;;24.36;24.99;102561.25;5079070;27;45331;-78
2022/03/23 12:58:05;;;;;;;;;25.50;23.75;;;;;24.39;25.01;102551.00;5078306;27;45687;-75
2022/03/23 13:00:33;;;;;;;;;24.00;24.00;;;;;24.39;24.77;102555.56;5078415;27;45413;-74
2022/03/23 13:03:07;;;;;;;;;25.25;23.00;;;;;24.38;24.72;102557.41;5079361;27;46088;-74
2022/03/23 13:05:35;;;;;;;;;23.00;21.25;;;;;24.35;23.88;102552.25;5080274;27;48807;-77
2022/03/23 13:08:01;;;;;;;;;24.50;23.75;;;;;24.31;23.74;102543.50;5077394;27;45556;-74
2022/03/23 13:10:26;;;;;;;;;21.75;21.25;;;;;24.28;23.87;102551.06;5088244;27;45675;-78
2022/03/23 13:13:08;;;;;;;;;24.75;23.00;;;;;24.26;24.40;102539.44;5084539;27;45334;-75
2022/03/23 13:15:34;;;;;;;;;23.50;21.50;;;;;24.25;24.62;102535.03;5087977;27;45529;-75
2022/03/23 13:18:00;;;;;;;;;26.00;25.75;;;;;24.28;24.92;102540.19;5085227;27;45356;-75
2022/03/23 13:20:28;;;;;;;;;21.75;20.50;;;;;24.29;25.23;102541.91;5079124;27;45556;-74
2022/03/23 13:22:53;;;;;;;;;24.50;24.25;;;;;24.29;25.28;102545.50;5076425;27;46337;-74
2022/03/23 13:25:20;;;;;;;;;22.25;22.25;;;;;24.31;25.37;102538.09;5080056;27;45540;-74
2022/03/23 13:27:47;;;;;;;;;22.00;22.00;;;;;24.34;25.85;102531.53;5078740;27;45410;-75
2022/03/23 13:30:14;;;;;;;;;22.25;22.25;;;;;24.34;26.19;102526.97;5079425;27;45362;-75
2022/03/23 13:32:45;;;;;;;;;28.50;26.00;;;;;24.37;26.05;102530.41;5078445;27;45509;-74
2022/03/23 13:35:16;;;;;;;;;20.50;18.75;;;;;24.26;26.67;102507.78;5077110;27;45657;-75
2022/03/23 13:38:04;;;;;;;;;25.00;24.00;;;;;24.41;26.94;102519.19;5078724;27;45419;-75
2022/03/23 13:43:19;;;;;;;;;17.00;16.50;;;;;24.44;26.82;102512.63;5077958;27;45662;-75
2022/03/23 13:43:19;;;;;;;;;22.50;20.25;;;;;24.46;27.16;102508.78;5077085;27;45499;-76
2022/03/23 13:45:49;;;;;;;;;22.25;21.25;;;;;24.46;26.99;102506.06;5078625;27;45552;-76
2022/03/23 13:48:16;;;;;;;;;23.00;21.50;;;;;24.51;27.42;102496.63;5076772;27;45521;-76
2022/03/23 13:50:49;;;;;;;;;21.75;20.50;;;;;24.54;27.80;102490.97;5078644;27;45564;-76
2022/03/23 13:53:17;;;;;;;;;22.75;22.25;;;;;24.57;27.94;102496.13;5075876;27;45837;-76
2022/03/23 13:55:47;;;;;;;;;20.75;20.25;;;;;24.57;27.72;102496.13;5079220;27;45524;-78
2022/03/23 13:58:13;;;;;;;;;19.00;18.50;;;;;24.61;28.19;102494.88;5077470;27;45497;-75
2022/03/23 14:00:39;;;;;;;;;22.25;20.50;;;;;24.64;28.69;102485.59;5098241;27;45559;-76
2022/03/23 14:03:04;;;;;;;;;21.25;21.00;;;;;24.65;28.25;102492.75;5086831;27;45416;-74
2022/03/23 14:05:31;;;;;;;;;22.33;18.33;;;;;24.66;28.70;102489.91;5084826;27;45374;-77
2022/03/23 14:07:57;;;;;;;;;21.33;21.33;;;;;24.67;27.48;102479.88;5096273;27;45633;-72
2022/03/23 14:10:37;;;;;;;;;22.50;21.00;;;;;24.66;27.75;102486.31;5081011;27;45450;-73
2022/03/23 14:13:13;;;;;;;;;20.50;20.50;;;;;24.62;27.78;102485.72;5088800;27;45433;-72
2022/03/23 14:15:50;;;;;;;;;22.00;20.00;;;;;24.58;27.73;102467.97;5085006;27;45614;-77
2022/03/23 14:18:17;;;;;;;;;24.00;20.25;;;;;24.56;28.16;102478.97;5084903;27;45494;-74
2022/03/23 14:20:52;;;;;;;;;21.00;17.33;;;;;24.56;27.90;102468.13;5082763;27;45541;-75
2022/03/23 14:23:28;;;;;;;;;22.00;17.25;;;;;24.55;28.36;102460.97;5082835;27;45560;-75
2022/03/23 14:26:17;;;;;;;;;22.00;20.25;;;;;24.56;28.66;102464.56;5079720;27;45431;-75
2022/03/23 14:28:45;;;;;;;;;22.50;20.25;;;;;24.56;28.90;102473.53;5080387;27;45659;-75
2022/03/23 14:31:17;;;;;;;;;19.33;15.67;;;;;24.54;29.37;102464.69;5088250;27;45393;-75
2022/03/23 14:33:50;;;;;;;;;19.00;19.00;;;;;24.59;29.27;102470.56;5098383;27;45788;-76
2022/03/23 14:36:24;;;;;;;;;22.75;21.25;;;;;24.60;29.07;102464.13;5096429;27;45438;-75
2022/03/23 14:38:49;;;;;;;;;19.00;18.33;;;;;24.59;29.76;102453.41;5087317;27;45631;-74
2022/03/23 14:41:20;;;;;;;;;20.75;19.00;;;;;24.62;29.70;102455.88;5080336;27;45501;-75
2022/03/23 14:43:48;;;;;;;;;18.33;17.00;;;;;24.65;29.73;102457.44;5088397;27;45500;-76
2022/03/23 14:46:23;;;;;;;;;15.00;15.00;;;;;24.66;30.00;102456.44;5082848;27;45532;-75
2022/03/23 14:49:09;;;;;;;;;22.75;21.00;;;;;24.64;30.02;102442.16;5083058;27;45449;-78
2022/03/23 14:51:36;;;;;;;;;20.75;17.75;;;;;24.68;30.22;102454.47;5085569;27;45481;-77
2022/03/23 14:54:04;;;;;;;;;19.67;19.67;;;;;24.66;30.47;102448.31;5086036;27;45560;-75
2022/03/23 14:56:30;;;;;;;;;17.25;17.25;;;;;24.68;30.50;102454.47;5084074;27;45440;-74
2022/03/23 14:59:00;;;;;;;;;17.75;17.75;;;;;24.71;30.62;102455.06;5087284;27;45675;-75
2022/03/23 15:01:26;;;;;;;;;18.00;17.00;;;;;24.71;30.57;102446.03;5091640;27;45336;-74
2022/03/23 15:03:53;;;;;;;;;20.25;19.00;;;;;24.74;30.74;102452.06;5083440;27;45306;-74
2022/03/23 15:14:33;;;;;;;;;19.67;17.33;;;;;24.79;31.40;102437.22;5087085;27;45300;-75
2022/03/23 15:16:59;;;;;;;;;15.33;15.33;;;;;24.82;31.24;102442.38;5079213;27;45797;-78
2022/03/23 15:19:25;;;;;;;;;19.67;16.67;;;;;24.79;31.25;102427.22;5074467;27;45500;-77
2022/03/23 15:21:50;;;;;;;;;18.33;16.67;;;;;24.80;31.52;102423.50;5079789;27;45452;-79
2022/03/23 15:24:17;;;;;;;;;18.00;18.00;;;;;24.82;31.84;102426.97;5077080;27;45907;-78
2022/03/23 15:26:43;;;;;;;;;21.00;18.00;;;;;24.83;31.77;102431.44;5085278;27;45454;-76
2022/03/23 15:29:10;;;;;;;;;16.33;15.67;;;;;24.84;32.14;102425.00;5088120;27;45714;-77
2022/03/23 15:31:36;;;;;;;;;19.00;18.67;;;;;24.84;31.95;102422.28;5074935;27;45630;-78
2022/03/23 15:34:01;;;;;;;;;17.00;17.00;;;;;24.84;31.91;102413.25;5093038;27;46342;-78
2022/03/23 15:36:26;;;;;;;;;18.00;18.00;;;;;24.83;32.24;102414.25;5085928;27;45412;-78
2022/03/23 15:38:52;;;;;;;;;18.67;16.00;;;;;24.87;32.32;102418.44;5089426;27;45750;-78
2022/03/23 15:41:19;;;;;;;;;16.33;16.33;;;;;24.87;31.97;102410.28;5091237;27;45515;-77
2022/03/23 15:43:48;;;;;;;;;17.33;16.67;;;;;24.88;32.51;102416.59;5078776;27;45473;-77
2022/03/23 15:46:16;;;;;;;;;15.33;14.33;;;;;24.85;32.59;102410.41;5090811;27;45720;-73
2022/03/23 15:48:44;;;;;;;;;17.00;17.00;;;;;24.88;32.19;102419.28;5100285;27;45395;-76
2022/03/23 15:51:10;;;;;;;;;19.33;17.33;;;;;24.88;32.39;102416.59;5089491;27;45474;-74
2022/03/23 15:53:36;;;;;;;;;17.33;16.00;;;;;24.84;32.37;102414.13;5089555;27;46097;-76
2022/03/23 15:56:02;;;;;;;;;18.67;17.00;;;;;24.87;32.52;102407.56;5090274;27;45739;-75
2022/03/23 15:58:28;;;;;;;;;18.00;16.67;;;;;24.88;32.64;102408.44;5080507;27;45447;-75
2022/03/23 16:00:53;;;;;;;;;17.00;15.67;;;;;24.77;32.58;102399.34;5088347;27;45484;-74
2022/03/23 16:03:18;;;;;;;;;15.33;15.33;;;;;24.88;32.66;102409.28;5084500;27;47247;-74
2022/03/23 16:05:44;;;;;;;;;17.33;17.33;;;;;24.84;32.60;102399.69;5083579;27;45769;-75
2022/03/23 16:08:10;;;;;;;;;15.67;14.33;;;;;24.86;32.73;102408.56;5088907;27;45618;-77
2022/03/23 16:10:36;;;;;;;;;18.00;16.00;;;;;24.86;33.05;102406.69;5091215;27;45658;-76
2022/03/23 16:13:02;;;;;;;;;18.67;17.67;;;;;24.86;32.86;102403.97;5093803;27;46986;-76
2022/03/23 16:15:28;;;;;;;;;18.00;16.67;;;;;24.83;33.34;102404.28;5088348;27;45827;-76
2022/03/23 16:17:55;;;;;;;;;24.00;22.67;;;;;24.85;32.00;102406.84;5089013;27;45459;-75
2022/03/23 16:20:21;;;;;;;;;18.33;18.33;;;;;24.81;32.14;102411.66;5086792;27;45465;-80
2022/03/23 16:22:48;;;;;;;;;20.67;17.67;;;;;24.80;32.22;102411.81;5083845;27;46308;-82
2022/03/23 16:25:17;;;;;;;;;15.67;15.33;;;;;24.78;32.27;102411.94;5092736;27;45654;-76
2022/03/23 16:27:42;;;;;;;;;21.33;20.33;;;;;24.78;31.18;102402.91;5086755;27;45413;-93
2022/03/23 16:30:10;;;;;;;;;21.00;21.00;;;;;24.77;31.83;102412.06;5093881;27;45509;-84
2022/03/23 16:32:39;;;;;;;;;19.00;18.00;;;;;24.78;31.79;102411.94;5088095;27;45735;-80
2022/03/23 16:35:07;;;;;;;;;21.50;19.75;;;;;24.73;31.96;102401.47;5090941;27;45569;-77
2022/03/23 16:37:33;;;;;;;;;18.25;16.25;;;;;24.77;31.25;102423.78;5085446;27;45458;-82
2022/03/23 16:39:59;;;;;;;;;19.25;18.00;;;;;24.72;31.80;102426.03;5084181;27;45807;-78
2022/03/23 16:42:24;;;;;;;;;21.75;20.00;;;;;24.72;31.97;102418.75;5087813;27;47332;-78
2022/03/23 16:44:50;;;;;;;;;20.50;20.00;;;;;24.72;32.05;102410.63;5081498;27;45899;-87
2022/03/23 16:47:16;;;;;;;;;17.25;17.25;;;;;24.71;32.31;102421.59;5083901;27;45977;-76
2022/03/23 16:49:41;;;;;;;;;16.33;15.33;;;;;24.70;32.27;102419.91;5086668;27;45810;-87
2022/03/23 16:52:09;;;;;;;;;34.50;32.00;;;;;24.67;33.34;102423.75;5086460;27;45481;-81
2022/03/23 16:54:34;;;;;;;;;31.75;22.50;;;;;24.65;31.54;102419.44;5081926;27;45508;-79
2022/03/23 18:44:41;;;;;;;;;29.50;27.00;;;;;19.13;39.95;102471.22;5106444;27;45917;-74
2022/03/23 18:47:07;;;;;;;;;23.75;23.25;;;;;19.28;39.95;102466.66;5108927;27;45665;-74
2022/03/23 18:49:32;;;;;;;;;23.00;22.50;;;;;19.45;39.37;102474.53;5108580;27;45451;-75
2022/03/23 18:51:57;;;;;;;;;30.50;29.00;;;;;19.66;38.94;102470.56;5096344;27;45681;-75
2022/03/23 18:54:23;;;;;;;;;30.25;26.75;;;;;19.91;38.76;102483.28;5104101;27;49919;-76
2022/03/23 18:56:48;;;;;;;;;29.50;24.00;;;;;20.10;38.56;102474.84;5104757;27;45682;-75
2022/03/23 18:59:13;;;;;;;;;28.50;23.50;;;;;20.32;38.33;102472.50;5099624;27;45730;-75
2022/03/23 19:01:40;;;;;;;;;26.50;22.50;;;;;20.57;38.38;102487.00;5097179;27;45390;-76
2022/03/23 19:04:07;;;;;;;;;30.50;26.25;;;;;20.79;38.11;102491.75;5106605;27;46342;-76
2022/03/23 19:06:32;;;;;;;;;20.00;17.25;;;;;20.93;37.37;102483.59;5101724;27;45483;-75
2022/03/23 19:08:58;;;;;;;;;25.75;23.00;;;;;21.17;37.01;102487.38;5102890;27;45684;-75
2022/03/23 19:11:23;;;;;;;;;23.75;22.50;;;;;21.35;36.78;102485.16;5098380;27;45369;-76
2022/03/23 19:13:48;;;;;;;;;31.75;22.25;;;;;21.51;37.25;102497.53;5110862;27;46021;-74
2022/03/23 19:16:14;;;;;;;;;22.75;20.75;;;;;21.66;36.82;102492.84;5097438;27;45739;-75
2022/03/23 19:18:39;;;;;;;;;25.50;22.25;;;;;21.79;36.03;102492.84;5105503;27;45359;-75
2022/03/23 19:21:06;;;;;;;;;23.00;22.50;;;;;21.93;36.14;102495.38;5102523;27;45811;-75
2022/03/23 19:23:33;;;;;;;;;25.25;24.00;;;;;22.05;35.88;102501.69;5104996;27;46146;-75
2022/03/23 19:26:00;;;;;;;;;28.50;25.00;;;;;22.17;35.80;102499.03;5106975;27;45486;-75
2022/03/23 19:28:26;;;;;;;;;23.00;19.50;;;;;22.25;35.75;102494.75;5109226;27;45318;-75
2022/03/23 19:30:52;;;;;;;;;27.00;23.75;;;;;22.36;35.61;102506.59;5110797;27;45367;-75
2022/03/23 19:33:18;;;;;;;;;25.50;24.00;;;;;22.45;35.82;102492.38;5104548;27;45299;-75
2022/03/23 19:35:43;;;;;;;;;24.75;24.25;;;;;22.48;35.15;102485.84;5103096;27;46555;-75
2022/03/23 19:38:10;;;;;;;;;23.00;21.00;;;;;22.59;35.42;102499.44;5107583;27;45719;-75
2022/03/23 19:40:35;;;;;;;;;19.75;17.25;;;;;22.66;35.37;102494.41;5094651;27;45461;-76
2022/03/23 19:43:01;;;;;;;;;23.25;21.25;;;;;22.72;35.47;102496.63;5095875;27;45709;-75
2022/03/23 19:45:26;;;;;;;;;23.75;21.50;;;;;22.77;34.81;102499.81;5104155;27;47198;-75
2022/03/23 19:47:51;;;;;;;;;24.25;19.25;;;;;22.82;34.67;102504.88;5101974;27;45436;-76
